Aviation Digital Data Service (ADDS)

Output produced by METARs form (1426 UTC 21 August 2019)
found at http://www.aviationweather.gov/metar/data/
 
TAF EGLL 211102Z 2112/2218 22006KT 9999 FEW040